createdAt,value
2019-05-25T00:00:11.995Z,2.50
2019-05-25T00:01:11.979Z,2.60
2019-05-25T00:02:11.979Z,2.40
2019-05-25T00:03:11.955Z,2.70
2019-05-25T00:04:11.978Z,2.70
2019-05-25T00:05:11.939Z,2.70
2019-05-25T00:06:11.926Z,2.70
2019-05-25T00:07:11.979Z,2.40
2019-05-25T00:08:11.902Z,2.90
2019-05-25T00:09:11.899Z,3.00
2019-05-25T00:10:11.906Z,2.40
2019-05-25T00:11:11.874Z,3.00
2019-05-25T00:12:11.873Z,2.90
2019-05-25T00:13:11.851Z,3.10
2019-05-25T00:14:11.837Z,3.20
2019-05-25T00:15:11.851Z,3.10
2019-05-25T00:16:11.819Z,3.10
2019-05-25T00:17:11.834Z,3.30
2019-05-25T00:18:11.809Z,2.90
2019-05-25T00:19:11.793Z,2.80
2019-05-25T00:20:11.779Z,2.80
2019-05-25T00:21:14.009Z,3.20
2019-05-25T00:22:11.754Z,3.10
2019-05-25T00:23:11.742Z,3.00
2019-05-25T00:24:12.903Z,3.20
2019-05-25T00:25:11.724Z,3.10
2019-05-25T00:26:11.744Z,3.10
2019-05-25T00:27:11.702Z,3.00
2019-05-25T00:28:11.694Z,3.10
2019-05-25T00:29:11.679Z,3.50
2019-05-25T00:30:11.681Z,3.00
2019-05-25T00:31:11.691Z,3.00
2019-05-25T00:32:11.650Z,3.10
2019-05-25T00:33:11.634Z,3.00
2019-05-25T00:34:11.799Z,3.00
2019-05-25T00:35:11.651Z,3.00
2019-05-25T00:36:11.623Z,3.10
2019-05-25T00:37:11.621Z,3.10
2019-05-25T00:38:11.583Z,3.20
2019-05-25T00:39:11.587Z,2.90
2019-05-25T00:40:11.563Z,2.90
2019-05-25T00:41:11.560Z,3.10
2019-05-25T00:42:11.542Z,3.40
2019-05-25T00:43:11.548Z,3.20
2019-05-25T00:44:11.533Z,3.60
2019-05-25T00:45:11.509Z,3.00
2019-05-25T00:46:11.531Z,3.10
2019-05-25T00:47:11.487Z,3.20
2019-05-25T00:48:11.523Z,3.10
2019-05-25T00:49:11.466Z,3.00
2019-05-25T00:50:11.458Z,3.40
2019-05-25T00:51:11.450Z,3.50
2019-05-25T00:52:11.500Z,3.30
2019-05-25T00:53:11.453Z,3.20
2019-05-25T00:54:25.404Z,3.20
2019-05-25T00:55:12.406Z,3.30
2019-05-25T00:56:11.392Z,3.30
2019-05-25T00:57:11.398Z,3.30
2019-05-25T00:58:11.372Z,3.50
2019-05-25T00:59:11.394Z,3.60
2019-05-25T01:00:11.351Z,3.50
2019-05-25T01:01:11.356Z,3.30
2019-05-25T01:02:11.359Z,3.30
2019-05-25T01:03:11.317Z,3.40
2019-05-25T01:04:11.310Z,3.50
2019-05-25T01:05:11.351Z,3.20
2019-05-25T01:06:11.288Z,3.30
2019-05-25T01:07:11.291Z,3.40
2019-05-25T01:08:11.269Z,3.60
2019-05-25T01:09:11.254Z,3.30
2019-05-25T01:10:11.268Z,3.20
2019-05-25T01:11:18.784Z,3.50
2019-05-25T01:12:11.228Z,3.30
2019-05-25T01:13:11.244Z,3.30
2019-05-25T01:14:11.224Z,3.00
2019-05-25T01:15:11.214Z,3.30
2019-05-25T01:16:11.218Z,3.40
2019-05-25T01:17:11.171Z,3.30
2019-05-25T01:18:11.160Z,3.20
2019-05-25T01:19:11.161Z,3.40
2019-05-25T01:20:11.509Z,3.10
2019-05-25T01:21:11.131Z,3.10
2019-05-25T01:22:11.118Z,3.10
2019-05-25T01:23:11.130Z,3.20
2019-05-25T01:24:11.103Z,3.20
2019-05-25T01:25:11.086Z,3.10
2019-05-25T01:26:11.130Z,3.40
2019-05-25T01:27:11.069Z,3.30
2019-05-25T01:28:11.091Z,3.30
2019-05-25T01:29:11.042Z,3.30
2019-05-25T01:30:11.067Z,3.30
2019-05-25T01:31:11.026Z,3.10
2019-05-25T01:32:11.026Z,3.30
2019-05-25T01:33:11.003Z,3.10
2019-05-25T01:34:11.019Z,3.30
2019-05-25T01:35:11.008Z,3.30
2019-05-25T01:36:11.002Z,3.40
2019-05-25T01:37:10.962Z,3.40
2019-05-25T01:38:10.958Z,3.40
2019-05-25T01:39:10.941Z,3.30
2019-05-25T01:40:10.929Z,3.20
2019-05-25T01:41:10.962Z,3.70
2019-05-25T01:42:10.913Z,3.50
2019-05-25T01:43:10.922Z,4.00
2019-05-25T01:44:10.885Z,3.70
2019-05-25T01:45:10.897Z,3.90
2019-05-25T01:46:10.887Z,3.80
2019-05-25T01:47:10.862Z,3.90
2019-05-25T01:48:10.848Z,3.50
2019-05-25T01:49:10.832Z,3.50
2019-05-25T01:50:10.824Z,3.50
2019-05-25T01:51:10.845Z,3.60
2019-05-25T01:52:10.813Z,3.80
2019-05-25T01:53:11.729Z,4.00
2019-05-25T01:54:10.780Z,3.60
2019-05-25T01:55:10.825Z,3.50
2019-05-25T01:56:10.758Z,4.00
2019-05-25T01:57:10.800Z,3.70
2019-05-25T01:58:10.748Z,3.90
2019-05-25T01:59:10.730Z,3.90
2019-05-25T02:00:10.846Z,3.90
2019-05-25T02:01:10.721Z,4.00
2019-05-25T02:02:10.719Z,4.00
2019-05-25T02:03:10.684Z,4.00
2019-05-25T02:04:10.679Z,3.50
2019-05-25T02:05:10.707Z,3.70
2019-05-25T02:06:10.669Z,3.60
2019-05-25T02:07:10.668Z,4.00
2019-05-25T02:08:10.646Z,4.00
2019-05-25T02:09:10.632Z,3.70
2019-05-25T02:10:10.614Z,3.70
2019-05-25T02:11:10.612Z,3.70
2019-05-25T02:12:10.662Z,3.70
2019-05-25T02:13:10.590Z,3.80
2019-05-25T02:14:10.573Z,3.70
2019-05-25T02:15:10.569Z,3.90
2019-05-25T02:16:10.551Z,4.10
2019-05-25T02:17:10.561Z,4.20
2019-05-25T02:18:10.561Z,3.70
2019-05-25T02:19:10.520Z,4.00
2019-05-25T02:20:10.518Z,3.80
2019-05-25T02:21:10.502Z,3.60
2019-05-25T02:22:10.516Z,4.60
2019-05-25T02:23:10.473Z,4.20
2019-05-25T02:24:10.464Z,3.90
2019-05-25T02:25:17.851Z,3.60
2019-05-25T02:26:11.447Z,3.60
2019-05-25T02:27:10.436Z,3.90
2019-05-25T02:28:10.451Z,4.10
2019-05-25T02:29:10.437Z,3.90
2019-05-25T02:30:10.473Z,3.80
2019-05-25T02:31:10.391Z,4.00
2019-05-25T02:32:10.387Z,4.30
2019-05-25T02:33:10.393Z,4.20
2019-05-25T02:34:10.364Z,4.20
2019-05-25T02:35:10.390Z,4.30
2019-05-25T02:36:10.340Z,4.50
2019-05-25T02:37:10.329Z,3.90
2019-05-25T02:38:10.340Z,4.30
2019-05-25T02:39:10.310Z,4.30
2019-05-25T02:40:10.300Z,4.40
2019-05-25T02:41:10.457Z,4.40
2019-05-25T02:42:10.279Z,4.20
2019-05-25T02:43:10.282Z,4.40
2019-05-25T02:44:10.261Z,4.30
2019-05-25T02:45:10.244Z,4.40
2019-05-25T02:46:10.250Z,4.80
2019-05-25T02:47:10.226Z,4.80
2019-05-25T02:48:10.232Z,4.60
2019-05-25T02:49:10.200Z,4.50
2019-05-25T02:50:10.195Z,5.10
2019-05-25T02:51:10.178Z,4.70
2019-05-25T02:52:10.191Z,4.80
2019-05-25T02:53:10.186Z,4.90
2019-05-25T02:54:10.152Z,4.90
2019-05-25T02:55:10.150Z,4.70
2019-05-25T02:56:10.130Z,4.70
2019-05-25T02:57:10.127Z,4.60
2019-05-25T02:58:10.109Z,5.20
2019-05-25T02:59:10.152Z,4.80
2019-05-25T03:00:10.089Z,5.50
2019-05-25T03:01:10.073Z,5.60
2019-05-25T03:02:10.070Z,5.60
2019-05-25T03:03:10.061Z,5.40
2019-05-25T03:04:10.067Z,5.00
2019-05-25T03:05:10.049Z,5.30
2019-05-25T03:06:10.057Z,5.40
2019-05-25T03:07:10.009Z,5.10
2019-05-25T03:08:10.027Z,5.70
2019-05-25T03:09:10.018Z,6.00
2019-05-25T03:10:09.983Z,5.90
2019-05-25T03:11:09.996Z,5.60
2019-05-25T03:12:09.972Z,5.70
2019-05-25T03:13:09.948Z,5.70
2019-05-25T03:14:09.962Z,5.70
2019-05-25T03:15:09.954Z,5.90
2019-05-25T03:16:09.921Z,6.30
2019-05-25T03:17:09.914Z,6.30
2019-05-25T03:18:09.898Z,5.60
2019-05-25T03:19:09.936Z,5.50
2019-05-25T03:20:09.875Z,6.30
2019-05-25T03:21:09.862Z,6.50
2019-05-25T03:22:09.857Z,6.60
2019-05-25T03:23:09.874Z,6.00
2019-05-25T03:24:09.833Z,5.50
2019-05-25T03:25:09.861Z,6.70
2019-05-25T03:26:09.812Z,6.40
2019-05-25T03:27:09.837Z,6.60
2019-05-25T03:28:09.789Z,6.40
2019-05-25T03:29:09.786Z,6.00
2019-05-25T03:30:09.843Z,7.20
2019-05-25T03:31:09.763Z,6.60
2019-05-25T03:32:09.751Z,6.50
2019-05-25T03:33:09.755Z,7.00
2019-05-25T03:34:09.734Z,6.20
2019-05-25T03:35:09.742Z,6.80
2019-05-25T03:36:09.704Z,6.60
2019-05-25T03:37:09.725Z,6.90
2019-05-25T03:38:09.708Z,6.40
2019-05-25T03:39:09.688Z,6.30
2019-05-25T03:40:09.679Z,6.60
2019-05-25T03:41:09.677Z,6.20
2019-05-25T03:42:09.646Z,6.10
2019-05-25T03:43:09.635Z,6.10
2019-05-25T03:44:09.650Z,5.80
2019-05-25T03:45:09.620Z,6.30
2019-05-25T03:46:09.615Z,6.20
2019-05-25T03:47:09.611Z,6.20
2019-05-25T03:48:09.575Z,6.60
2019-05-25T03:49:09.564Z,5.90
2019-05-25T03:50:09.556Z,5.80
2019-05-25T03:51:09.566Z,6.40
2019-05-25T03:52:09.536Z,6.50
2019-05-25T03:53:09.539Z,6.90
2019-05-25T03:54:09.523Z,6.90
2019-05-25T03:55:09.504Z,6.90
2019-05-25T03:56:09.562Z,7.30
2019-05-25T03:57:09.479Z,7.00
2019-05-25T03:58:09.492Z,7.10
2019-05-25T03:59:09.480Z,6.60
2019-05-25T04:00:09.457Z,6.80
2019-05-25T04:01:09.443Z,7.40
2019-05-25T04:02:09.456Z,7.30
2019-05-25T04:03:09.450Z,7.20
2019-05-25T04:04:09.413Z,8.30
2019-05-25T04:05:09.412Z,7.40
2019-05-25T04:06:09.414Z,7.60
2019-05-25T04:07:09.400Z,8.00
2019-05-25T04:08:09.370Z,7.40
2019-05-25T04:09:09.370Z,7.60
2019-05-25T04:10:09.343Z,8.00
2019-05-25T04:11:09.342Z,8.10
2019-05-25T04:12:09.370Z,7.50
2019-05-25T04:13:09.313Z,7.50
2019-05-25T04:14:09.319Z,7.60
2019-05-25T04:15:09.312Z,7.80
2019-05-25T04:16:09.283Z,8.10
2019-05-25T04:17:09.310Z,7.90
2019-05-25T04:18:09.252Z,8.30
2019-05-25T04:19:09.253Z,7.80
2019-05-25T04:20:09.234Z,8.40
2019-05-25T04:21:09.291Z,8.40
2019-05-25T04:22:09.218Z,8.60
2019-05-25T04:23:09.223Z,8.40
2019-05-25T04:24:09.192Z,8.80
2019-05-25T04:25:09.181Z,8.40
2019-05-25T04:26:21.993Z,8.40
2019-05-25T04:27:10.156Z,9.10
2019-05-25T04:28:09.197Z,9.00
2019-05-25T04:29:09.146Z,9.30
2019-05-25T04:30:09.126Z,8.70
2019-05-25T04:31:09.115Z,9.00
2019-05-25T04:32:09.105Z,8.50
2019-05-25T04:33:09.115Z,9.10
2019-05-25T04:34:09.087Z,9.30
2019-05-25T04:35:09.082Z,8.90
2019-05-25T04:36:09.117Z,8.20
2019-05-25T04:37:09.080Z,7.80
2019-05-25T04:38:09.063Z,8.70
2019-05-25T04:39:09.038Z,9.10
2019-05-25T04:40:09.023Z,9.50
2019-05-25T04:41:09.013Z,9.10
2019-05-25T04:42:09.002Z,8.50
2019-05-25T04:43:09.029Z,9.30
2019-05-25T04:44:08.981Z,8.80
2019-05-25T04:45:08.975Z,8.50
2019-05-25T04:46:08.961Z,8.90
2019-05-25T04:47:08.969Z,8.80
2019-05-25T04:48:08.942Z,8.90
2019-05-25T04:49:08.945Z,8.40
2019-05-25T04:50:08.918Z,9.30
2019-05-25T04:51:08.917Z,9.60
2019-05-25T04:52:08.894Z,8.70
2019-05-25T04:53:08.883Z,8.40
2019-05-25T04:54:08.892Z,8.90
2019-05-25T04:55:08.886Z,9.00
2019-05-25T04:56:08.851Z,9.60
2019-05-25T04:57:08.980Z,9.20
2019-05-25T04:58:08.833Z,8.20
2019-05-25T04:59:08.839Z,9.30
2019-05-25T05:00:08.812Z,9.60
2019-05-25T05:01:08.822Z,8.80
2019-05-25T05:02:08.786Z,9.50
2019-05-25T05:03:08.777Z,9.30
2019-05-25T05:04:08.855Z,8.90
2019-05-25T05:05:08.758Z,9.20
2019-05-25T05:06:08.747Z,10.00
2019-05-25T05:07:08.734Z,8.60
2019-05-25T05:08:08.726Z,9.90
2019-05-25T05:09:08.711Z,9.50
2019-05-25T05:10:08.740Z,9.60
2019-05-25T05:11:08.695Z,9.50
2019-05-25T05:12:08.683Z,9.20
2019-05-25T05:13:08.672Z,10.30
2019-05-25T05:14:08.659Z,9.60
2019-05-25T05:15:08.670Z,12.40
2019-05-25T05:16:08.641Z,10.20
2019-05-25T05:17:08.631Z,10.00
2019-05-25T05:18:08.617Z,10.20
2019-05-25T05:19:08.625Z,10.30
2019-05-25T05:20:08.618Z,10.40
2019-05-25T05:21:08.590Z,11.20
2019-05-25T05:22:08.577Z,11.20
2019-05-25T05:23:08.567Z,10.90
2019-05-25T05:24:08.554Z,9.90
2019-05-25T05:25:09.636Z,11.00
2019-05-25T05:26:08.530Z,10.60
2019-05-25T05:27:08.525Z,10.60
2019-05-25T05:28:08.524Z,10.80
2019-05-25T05:29:08.506Z,10.80
2019-05-25T05:30:08.521Z,11.80
2019-05-25T05:31:22.614Z,11.90
2019-05-25T05:32:09.467Z,9.90
2019-05-25T05:33:08.461Z,11.70
2019-05-25T05:34:08.447Z,11.50
2019-05-25T05:35:08.455Z,11.10
2019-05-25T05:36:08.455Z,11.80
2019-05-25T05:37:08.437Z,12.20
2019-05-25T05:38:08.408Z,12.10
2019-05-25T05:39:08.393Z,11.30
2019-05-25T05:40:08.381Z,12.00
2019-05-25T05:41:08.392Z,12.50
2019-05-25T05:42:08.366Z,11.40
2019-05-25T05:43:08.349Z,11.70
2019-05-25T05:44:08.347Z,12.00
2019-05-25T05:45:08.329Z,13.00
2019-05-25T05:46:08.348Z,12.30
2019-05-25T05:47:10.449Z,11.80
2019-05-25T05:48:08.297Z,12.20
2019-05-25T05:49:08.293Z,11.90
2019-05-25T05:50:08.278Z,11.00
2019-05-25T05:51:08.292Z,12.30
2019-05-25T05:52:08.258Z,12.20
2019-05-25T05:53:08.304Z,11.20
2019-05-25T05:54:08.232Z,11.80
2019-05-25T05:55:08.233Z,12.60
2019-05-25T05:56:08.236Z,12.20
2019-05-25T05:57:12.391Z,11.90
2019-05-25T05:58:08.194Z,11.60
2019-05-25T05:59:08.187Z,12.00
2019-05-25T06:00:08.175Z,11.90
2019-05-25T06:01:08.187Z,12.20
2019-05-25T06:02:08.155Z,11.20
2019-05-25T06:03:08.139Z,11.40
2019-05-25T06:04:08.141Z,10.60
2019-05-25T06:05:08.137Z,11.00
2019-05-25T06:06:08.110Z,10.00
2019-05-25T06:07:08.118Z,11.50
2019-05-25T06:08:08.087Z,10.60
2019-05-25T06:09:08.082Z,10.20
2019-05-25T06:10:08.067Z,11.30
2019-05-25T06:11:08.054Z,10.90
2019-05-25T06:12:08.086Z,10.70
2019-05-25T06:13:08.032Z,11.00
2019-05-25T06:14:08.024Z,10.80
2019-05-25T06:15:08.022Z,11.20
2019-05-25T06:16:07.999Z,11.20
2019-05-25T06:17:08.020Z,9.80
2019-05-25T06:18:07.982Z,10.00
2019-05-25T06:19:07.989Z,10.40
2019-05-25T06:20:07.958Z,10.90
2019-05-25T06:21:07.951Z,10.70
2019-05-25T06:22:07.958Z,10.10
2019-05-25T06:23:12.198Z,10.10
2019-05-25T06:24:07.919Z,10.00
2019-05-25T06:25:07.919Z,10.20
2019-05-25T06:26:08.269Z,9.90
2019-05-25T06:27:07.909Z,10.50
2019-05-25T06:28:07.888Z,10.20
2019-05-25T06:29:07.866Z,10.10
2019-05-25T06:30:07.890Z,10.80
2019-05-25T06:31:07.842Z,10.40
2019-05-25T06:32:07.835Z,9.80
2019-05-25T06:33:07.857Z,8.40
2019-05-25T06:34:07.813Z,10.00
2019-05-25T06:35:07.823Z,10.30
2019-05-25T06:36:07.790Z,10.60
2019-05-25T06:37:07.782Z,10.40
2019-05-25T06:38:07.792Z,9.80
2019-05-25T06:39:07.776Z,10.30
2019-05-25T06:40:07.755Z,9.90
2019-05-25T06:41:08.794Z,9.50
2019-05-25T06:42:07.727Z,9.60
2019-05-25T06:43:07.736Z,10.60
2019-05-25T06:44:07.719Z,9.70
2019-05-25T06:45:07.699Z,9.50
2019-05-25T06:46:07.688Z,9.30
2019-05-25T06:47:07.675Z,9.00
2019-05-25T06:48:07.720Z,9.80
2019-05-25T06:49:07.669Z,9.00
2019-05-25T06:50:07.640Z,9.80
2019-05-25T06:51:07.631Z,9.30
2019-05-25T06:52:07.622Z,9.60
2019-05-25T06:53:07.611Z,9.60
2019-05-25T06:54:07.628Z,9.70
2019-05-25T06:55:07.590Z,9.60
2019-05-25T06:56:07.579Z,9.80
2019-05-25T06:57:07.573Z,10.00
2019-05-25T06:58:07.567Z,10.10
2019-05-25T06:59:07.567Z,10.10
2019-05-25T07:00:07.551Z,9.40
2019-05-25T07:01:07.524Z,9.70
2019-05-25T07:02:07.516Z,8.40
2019-05-25T07:03:07.504Z,9.50
2019-05-25T07:04:07.515Z,9.50
2019-05-25T07:05:07.486Z,9.30
2019-05-25T07:06:07.471Z,9.60
2019-05-25T07:07:07.474Z,10.80
2019-05-25T07:08:07.452Z,12.20
2019-05-25T07:09:07.458Z,13.20
2019-05-25T07:10:07.433Z,13.10
2019-05-25T07:11:07.424Z,13.00
2019-05-25T07:12:07.434Z,12.70
2019-05-25T07:13:07.400Z,12.60
2019-05-25T07:14:07.444Z,12.40
2019-05-25T07:15:07.377Z,11.60
2019-05-25T07:16:07.367Z,10.70
2019-05-25T07:17:07.366Z,10.70
2019-05-25T07:18:07.344Z,11.40
2019-05-25T07:19:07.333Z,12.20
2019-05-25T07:20:07.347Z,12.60
2019-05-25T07:21:07.336Z,13.20
2019-05-25T07:22:07.302Z,14.80
2019-05-25T07:23:07.295Z,14.30
2019-05-25T07:24:07.280Z,13.60
2019-05-25T07:25:07.309Z,14.80
2019-05-25T07:26:07.289Z,15.80
2019-05-25T07:27:07.250Z,15.20
2019-05-25T07:28:07.250Z,13.90
2019-05-25T07:29:07.233Z,13.40
2019-05-25T07:30:07.432Z,13.90
2019-05-25T07:31:07.295Z,12.90
2019-05-25T07:32:07.233Z,13.10
2019-05-25T07:33:07.189Z,15.00
2019-05-25T07:34:07.180Z,14.10
2019-05-25T07:35:07.238Z,15.50
2019-05-25T07:36:07.963Z,15.10
2019-05-25T07:37:07.148Z,15.60
2019-05-25T07:38:07.197Z,15.90
2019-05-25T07:39:07.125Z,16.10
2019-05-25T07:40:07.125Z,15.70
2019-05-25T07:41:07.131Z,16.90
2019-05-25T07:42:07.089Z,16.40
2019-05-25T07:43:07.087Z,17.30
2019-05-25T07:44:14.635Z,18.00
2019-05-25T07:45:07.078Z,18.10
2019-05-25T07:46:07.070Z,17.90
2019-05-25T07:47:07.047Z,15.90
2019-05-25T07:48:07.030Z,18.50
2019-05-25T07:49:07.016Z,18.00
2019-05-25T07:50:07.029Z,17.20
2019-05-25T07:51:07.013Z,17.70
2019-05-25T07:52:06.982Z,17.20
2019-05-25T07:53:06.975Z,16.00
2019-05-25T07:54:06.969Z,17.60
2019-05-25T07:55:06.956Z,18.30
2019-05-25T07:56:06.962Z,17.60
2019-05-25T07:57:06.928Z,18.10
2019-05-25T07:58:16.640Z,17.90
2019-05-25T07:59:07.921Z,17.20
2019-05-25T08:00:06.902Z,16.20
2019-05-25T08:01:06.918Z,15.80
2019-05-25T08:02:06.878Z,15.70
2019-05-25T08:03:06.880Z,15.40
2019-05-25T08:04:06.856Z,14.40
2019-05-25T08:05:06.847Z,16.10
2019-05-25T08:06:06.859Z,15.30
2019-05-25T08:07:06.825Z,14.00
2019-05-25T08:08:06.821Z,18.30
2019-05-25T08:09:06.809Z,17.90
2019-05-25T08:10:06.823Z,17.80
2019-05-25T08:11:06.785Z,18.40
2019-05-25T08:12:06.796Z,18.70
2019-05-25T08:13:06.769Z,17.30
2019-05-25T08:14:06.748Z,18.10
2019-05-25T08:15:06.742Z,17.20
2019-05-25T08:16:06.729Z,16.60
2019-05-25T08:17:06.740Z,16.60
2019-05-25T08:18:06.704Z,16.60
2019-05-25T08:19:06.698Z,16.80
2019-05-25T08:20:06.691Z,17.20
2019-05-25T08:21:06.672Z,17.50
2019-05-25T08:22:06.695Z,16.30
2019-05-25T08:23:06.654Z,18.00
2019-05-25T08:24:06.643Z,17.60
2019-05-25T08:25:06.631Z,17.10
2019-05-25T08:26:06.621Z,17.70
2019-05-25T08:27:06.647Z,17.40
2019-05-25T08:28:06.603Z,17.40
2019-05-25T08:29:06.593Z,18.80
2019-05-25T08:30:06.579Z,18.60
2019-05-25T08:31:06.579Z,18.10
2019-05-25T08:32:06.550Z,19.60
2019-05-25T08:33:06.564Z,18.40
2019-05-25T08:34:06.533Z,18.90
2019-05-25T08:35:06.538Z,19.10
2019-05-25T08:36:06.510Z,18.60
2019-05-25T08:37:06.511Z,18.10
2019-05-25T08:38:06.514Z,16.90
2019-05-25T08:39:06.480Z,18.40
2019-05-25T08:40:06.476Z,18.40
2019-05-25T08:41:06.474Z,19.20
2019-05-25T08:42:06.457Z,19.30
2019-05-25T08:43:06.482Z,18.70
2019-05-25T08:44:06.429Z,16.40
2019-05-25T08:45:06.438Z,18.50
2019-05-25T08:46:06.405Z,17.50
2019-05-25T08:47:06.395Z,18.30
2019-05-25T08:48:06.398Z,18.00
2019-05-25T08:49:06.393Z,18.20
2019-05-25T08:50:06.367Z,17.80
2019-05-25T08:51:06.398Z,18.30
2019-05-25T08:52:06.346Z,17.90
2019-05-25T08:53:06.329Z,18.00
2019-05-25T08:54:06.345Z,17.60
2019-05-25T08:55:06.313Z,17.90
2019-05-25T08:56:06.301Z,18.40
2019-05-25T08:57:06.287Z,19.00
2019-05-25T08:58:06.295Z,18.30
2019-05-25T08:59:06.280Z,19.20
2019-05-25T09:00:06.283Z,19.20
2019-05-25T09:01:06.245Z,19.70
2019-05-25T09:02:06.259Z,18.10
2019-05-25T09:03:06.248Z,19.10
2019-05-25T09:04:06.221Z,17.30
2019-05-25T09:05:06.202Z,17.60
2019-05-25T09:06:06.201Z,18.00
2019-05-25T09:07:06.189Z,17.20
2019-05-25T09:08:06.195Z,16.70
2019-05-25T09:09:06.160Z,18.20
2019-05-25T09:10:06.148Z,17.10
2019-05-25T09:11:06.180Z,16.90
2019-05-25T09:12:06.126Z,16.90
2019-05-25T09:13:06.116Z,15.20
2019-05-25T09:14:06.130Z,18.80
2019-05-25T09:15:06.232Z,18.30
2019-05-25T09:16:06.098Z,17.70
2019-05-25T09:17:06.075Z,16.60
2019-05-25T09:18:06.297Z,16.20
2019-05-25T09:19:06.076Z,17.30
2019-05-25T09:20:06.055Z,17.10
2019-05-25T09:21:06.031Z,16.50
2019-05-25T09:22:06.029Z,16.30
2019-05-25T09:23:06.011Z,17.50
2019-05-25T09:24:06.032Z,17.70
2019-05-25T09:25:05.987Z,17.30
2019-05-25T09:26:05.983Z,16.00
2019-05-25T09:27:05.967Z,14.40
2019-05-25T09:28:05.959Z,17.10
2019-05-25T09:29:07.658Z,17.60
2019-05-25T09:30:05.940Z,18.10
2019-05-25T09:31:05.962Z,19.10
2019-05-25T09:32:07.137Z,17.50
2019-05-25T09:33:05.910Z,17.80
2019-05-25T09:34:05.941Z,18.50
2019-05-25T09:35:05.907Z,17.90
2019-05-25T09:36:05.875Z,18.10
2019-05-25T09:37:05.920Z,17.90
2019-05-25T09:38:05.853Z,19.00
2019-05-25T09:39:05.869Z,18.60
2019-05-25T09:40:05.851Z,17.90
2019-05-25T09:41:05.844Z,19.10
2019-05-25T09:42:05.811Z,19.80
2019-05-25T09:43:05.798Z,19.00
2019-05-25T09:44:05.790Z,18.60
2019-05-25T09:45:05.796Z,17.90
2019-05-25T09:46:05.769Z,17.50
2019-05-25T09:47:05.753Z,18.00
2019-05-25T09:48:05.745Z,17.90
2019-05-25T09:49:05.737Z,18.00
2019-05-25T09:50:05.746Z,18.10
2019-05-25T09:51:15.540Z,18.00
2019-05-25T09:52:06.701Z,17.80
2019-05-25T09:53:05.688Z,17.40
2019-05-25T09:54:05.677Z,17.80
2019-05-25T09:55:05.726Z,19.20
2019-05-25T09:56:05.658Z,17.80
2019-05-25T09:57:05.761Z,16.90
2019-05-25T09:58:05.642Z,16.90
2019-05-25T09:59:19.193Z,17.60
2019-05-25T10:00:06.660Z,16.80
2019-05-25T10:01:05.612Z,17.00
2019-05-25T10:02:05.599Z,16.10
2019-05-25T10:03:05.593Z,16.40
2019-05-25T10:04:05.584Z,16.70
2019-05-25T10:05:05.567Z,15.70
2019-05-25T10:06:11.935Z,16.40
2019-05-25T10:07:06.541Z,16.00
2019-05-25T10:08:05.561Z,15.90
2019-05-25T10:09:05.523Z,17.00
2019-05-25T10:10:05.510Z,16.50
2019-05-25T10:11:05.627Z,16.00
2019-05-25T10:12:05.497Z,16.00
2019-05-25T10:13:05.486Z,16.20
2019-05-25T10:14:05.477Z,15.60
2019-05-25T10:15:05.522Z,15.00
2019-05-25T10:16:05.548Z,13.70
2019-05-25T10:17:05.446Z,14.40
2019-05-25T10:18:05.436Z,14.40
2019-05-25T10:19:05.501Z,14.50
2019-05-25T10:20:05.477Z,15.20
2019-05-25T10:21:05.444Z,14.20
2019-05-25T10:22:07.201Z,14.90
2019-05-25T10:23:05.403Z,14.50
2019-05-25T10:24:05.364Z,14.70
2019-05-25T10:25:05.377Z,14.80
2019-05-25T10:26:05.347Z,14.80
2019-05-25T10:27:05.354Z,15.20
2019-05-25T10:28:05.323Z,14.80
2019-05-25T10:29:05.343Z,14.10
2019-05-25T10:30:05.301Z,13.90
2019-05-25T10:31:05.318Z,13.80
2019-05-25T10:32:05.278Z,14.50
2019-05-25T10:33:05.266Z,13.10
2019-05-25T10:34:05.295Z,13.00
2019-05-25T10:35:05.266Z,12.70
2019-05-25T10:36:05.250Z,13.80
2019-05-25T10:37:05.374Z,14.00
2019-05-25T10:38:05.224Z,13.80
2019-05-25T10:39:05.212Z,14.00
2019-05-25T10:40:12.835Z,13.80
2019-05-25T10:41:05.192Z,13.60
2019-05-25T10:42:12.759Z,14.00
2019-05-25T10:43:05.167Z,14.30
2019-05-25T10:44:12.708Z,13.70
2019-05-25T10:45:05.161Z,13.40
2019-05-25T10:46:05.144Z,11.80
2019-05-25T10:47:05.147Z,11.60
2019-05-25T10:48:05.106Z,11.80
2019-05-25T10:49:05.363Z,11.90
2019-05-25T10:50:05.088Z,11.50
2019-05-25T10:51:05.076Z,11.20
2019-05-25T10:52:05.087Z,11.70
2019-05-25T10:53:05.092Z,12.10
2019-05-25T10:54:05.092Z,12.00
2019-05-25T10:56:14.768Z,11.70
2019-05-25T10:57:14.779Z,11.30
2019-05-25T10:58:14.736Z,11.70
2019-05-25T10:59:14.726Z,12.10
2019-05-25T11:00:15.448Z,10.70
2019-05-25T11:01:14.703Z,12.90
2019-05-25T11:02:14.711Z,11.80
2019-05-25T11:03:14.752Z,11.20
2019-05-25T11:04:14.678Z,11.60
2019-05-25T11:05:14.664Z,11.40
2019-05-25T11:06:14.725Z,11.80
2019-05-25T11:07:14.663Z,11.80
2019-05-25T11:08:14.635Z,11.20
2019-05-25T11:09:14.634Z,11.10
2019-05-25T11:10:14.612Z,10.80
2019-05-25T11:11:14.615Z,10.00
2019-05-25T11:12:14.632Z,11.10
2019-05-25T11:13:22.165Z,10.30
2019-05-25T11:14:14.565Z,9.80
2019-05-25T11:15:22.201Z,10.00
2019-05-25T11:16:14.598Z,11.00
2019-05-25T11:17:22.200Z,11.70
2019-05-25T11:18:14.606Z,9.90
2019-05-25T11:19:14.550Z,16.80
2019-05-25T11:20:14.523Z,9.90
2019-05-25T11:21:14.516Z,9.40
2019-05-25T11:22:14.502Z,13.50
2019-05-25T11:23:14.514Z,7.40
2019-05-25T11:24:14.453Z,7.30
2019-05-25T11:25:14.446Z,7.20
2019-05-25T11:26:14.444Z,7.10
2019-05-25T11:27:14.433Z,7.10
2019-05-25T11:28:14.437Z,7.30
2019-05-25T11:29:14.423Z,7.60
2019-05-25T11:30:14.440Z,6.90
2019-05-25T11:31:14.464Z,6.80
2019-05-25T11:32:22.995Z,6.30
2019-05-25T11:33:14.698Z,6.10
2019-05-25T11:34:22.312Z,5.90
2019-05-25T11:35:14.443Z,6.10
2019-05-25T11:37:50.404Z,6.10
2019-05-25T11:40:33.705Z,6.40
2019-05-25T11:41:33.555Z,6.00
2019-05-25T11:42:33.547Z,6.60
2019-05-25T11:43:33.575Z,6.50
2019-05-25T11:44:33.537Z,5.90
2019-05-25T11:45:33.517Z,6.20
2019-05-25T11:46:33.506Z,6.50
2019-05-25T11:47:33.495Z,6.20
2019-05-25T11:48:33.548Z,5.90
2019-05-25T11:50:50.660Z,5.10
2019-05-25T11:51:58.138Z,5.70
2019-05-25T11:52:50.595Z,5.70
2019-05-25T11:53:58.373Z,5.30
2019-05-25T11:54:50.425Z,5.90
2019-05-25T11:55:50.397Z,5.00
2019-05-25T11:56:50.434Z,5.00
2019-05-25T11:57:50.435Z,5.00
2019-05-25T11:58:50.432Z,4.70
2019-05-25T11:59:58.122Z,4.30
2019-05-25T12:00:51.737Z,4.10
2019-05-25T12:03:08.706Z,3.40
2019-05-25T12:04:08.688Z,3.90
2019-05-25T12:05:08.623Z,4.10
2019-05-25T12:06:08.598Z,4.00
2019-05-25T12:07:08.635Z,3.70
2019-05-25T12:08:08.635Z,3.80
2019-05-25T12:09:08.568Z,3.30
2019-05-25T12:10:08.563Z,3.20
2019-05-25T12:11:08.571Z,3.20
2019-05-25T12:12:08.698Z,3.10
2019-05-25T12:13:16.189Z,3.20
2019-05-25T12:14:08.554Z,3.00
2019-05-25T12:15:08.512Z,3.40
2019-05-25T12:16:08.575Z,3.30
2019-05-25T12:17:08.484Z,3.60
2019-05-25T12:18:16.303Z,3.90
2019-05-25T12:19:08.535Z,4.00
2019-05-25T12:20:09.700Z,4.40
2019-05-25T12:21:16.000Z,3.30
2019-05-25T12:22:08.477Z,2.90
2019-05-25T12:24:18.248Z,6.10
2019-05-25T12:25:18.201Z,6.10
2019-05-25T12:26:18.239Z,5.00
2019-05-25T12:27:18.834Z,5.70
2019-05-25T12:28:18.145Z,4.60
2019-05-25T12:29:26.866Z,4.10
2019-05-25T12:30:18.167Z,4.30
2019-05-25T12:31:18.299Z,3.70
2019-05-25T12:32:18.099Z,3.40
2019-05-25T12:33:18.086Z,3.50
2019-05-25T12:34:18.106Z,3.40
2019-05-25T12:35:18.064Z,5.10
2019-05-25T12:36:18.033Z,3.60
2019-05-25T12:37:18.029Z,3.40
2019-05-25T12:38:18.039Z,3.10
2019-05-25T12:39:18.002Z,3.10
2019-05-25T12:40:18.016Z,3.30
2019-05-25T12:41:17.985Z,3.30
2019-05-25T12:42:17.969Z,3.60
2019-05-25T12:43:17.996Z,3.80
2019-05-25T12:44:18.168Z,3.90
2019-05-25T12:45:17.962Z,4.90
2019-05-25T12:46:25.606Z,4.40
2019-05-25T12:47:18.076Z,3.80
2019-05-25T12:48:25.572Z,3.10
2019-05-25T12:49:17.943Z,2.80
2019-05-25T12:50:18.307Z,3.40
2019-05-25T12:51:25.536Z,3.70
2019-05-25T12:52:18.482Z,3.10
2019-05-25T12:53:26.823Z,3.20
2019-05-25T12:54:17.931Z,3.30
2019-05-25T12:56:49.386Z,3.80
2019-05-25T12:57:51.364Z,3.70
2019-05-25T12:58:56.848Z,3.50
2019-05-25T12:59:49.366Z,3.80
2019-05-25T13:01:59.330Z,3.50
2019-05-25T13:03:06.592Z,3.80
2019-05-25T13:03:59.094Z,3.60
2019-05-25T13:06:08.880Z,3.20
2019-05-25T13:08:18.449Z,4.00
2019-05-25T13:09:18.395Z,3.90
2019-05-25T13:10:27.804Z,3.90
2019-05-25T13:11:18.367Z,3.50
2019-05-25T13:12:18.349Z,3.70
2019-05-25T13:13:18.348Z,3.70
2019-05-25T13:14:19.132Z,3.70
2019-05-25T13:15:18.356Z,3.50
2019-05-25T13:16:18.304Z,3.80
2019-05-25T13:17:18.323Z,3.80
2019-05-25T13:18:18.283Z,4.10
2019-05-25T13:19:18.324Z,4.20
2019-05-25T13:20:18.369Z,3.80